createdAt,value
2018-01-07T00:01:37.501Z,80.25
2018-01-07T00:04:05.013Z,80.09
2018-01-07T00:06:32.516Z,80.14
2018-01-07T00:09:00.030Z,80.07
2018-01-07T00:11:27.577Z,80.15
2018-01-07T00:13:55.084Z,80.21
2018-01-07T00:16:22.605Z,79.94
2018-01-07T00:18:50.124Z,79.89
2018-01-07T00:21:17.641Z,79.84
2018-01-07T00:23:45.157Z,79.87
2018-01-07T00:26:12.665Z,79.84
2018-01-07T00:28:40.194Z,79.77
2018-01-07T00:31:07.720Z,79.63
2018-01-07T00:33:35.272Z,79.47
2018-01-07T00:36:02.789Z,79.66
2018-01-07T00:38:30.293Z,79.72
2018-01-07T00:40:57.798Z,79.70
2018-01-07T00:43:25.315Z,79.94
2018-01-07T00:45:52.819Z,79.95
2018-01-07T00:48:20.448Z,79.90
2018-01-07T00:50:47.953Z,79.82
2018-01-07T00:53:15.477Z,79.82
2018-01-07T00:55:43.000Z,79.50
2018-01-07T00:58:10.509Z,79.58
2018-01-07T01:00:38.030Z,79.51
2018-01-07T01:03:05.589Z,79.57
2018-01-07T01:05:33.092Z,79.46
2018-01-07T01:08:00.600Z,79.21
2018-01-07T01:10:28.113Z,78.87
2018-01-07T01:12:55.665Z,79.12
2018-01-07T01:15:23.178Z,78.75
2018-01-07T01:17:50.689Z,78.82
2018-01-07T01:20:18.210Z,78.83
2018-01-07T01:22:45.754Z,78.99
2018-01-07T01:25:13.316Z,78.88
2018-01-07T01:27:40.829Z,79.05
2018-01-07T01:30:08.328Z,79.16
2018-01-07T01:32:35.849Z,79.41
2018-01-07T01:35:03.454Z,79.41
2018-01-07T01:37:30.961Z,79.43
2018-01-07T01:39:58.468Z,79.76
2018-01-07T01:42:26.030Z,79.80
2018-01-07T01:44:53.589Z,79.86
2018-01-07T01:47:21.100Z,79.91
2018-01-07T01:49:48.719Z,79.98
2018-01-07T01:52:16.220Z,80.06
2018-01-07T01:54:43.737Z,80.17
2018-01-07T01:57:11.236Z,80.20
2018-01-07T01:59:38.740Z,80.19
2018-01-07T02:02:06.243Z,80.26
2018-01-07T02:04:33.756Z,80.40
2018-01-07T02:07:01.281Z,80.50
2018-01-07T02:09:28.793Z,80.66
2018-01-07T02:11:56.341Z,80.75
2018-01-07T02:14:23.842Z,80.73
2018-01-07T02:16:51.336Z,80.69
2018-01-07T02:19:18.866Z,80.70
2018-01-07T02:21:47.013Z,80.69
2018-01-07T02:24:14.516Z,80.77
2018-01-07T02:26:42.034Z,80.81
2018-01-07T02:29:09.548Z,81.04
2018-01-07T02:31:37.128Z,81.09
2018-01-07T02:34:04.641Z,81.01
2018-01-07T02:36:32.245Z,81.08
2018-01-07T02:38:59.768Z,81.08
2018-01-07T02:41:27.281Z,81.01
2018-01-07T02:43:54.805Z,81.03
2018-01-07T02:46:22.364Z,81.02
2018-01-07T02:48:49.889Z,81.00
2018-01-07T02:51:17.397Z,81.07
2018-01-07T02:53:44.899Z,81.10
2018-01-07T02:56:12.409Z,80.87
2018-01-07T02:58:39.930Z,80.70
2018-01-07T03:01:07.459Z,80.63
2018-01-07T03:03:34.969Z,80.60
2018-01-07T03:06:02.480Z,79.05
2018-01-07T03:08:30.027Z,77.54
2018-01-07T03:10:57.585Z,77.32
2018-01-07T03:13:25.084Z,76.37
2018-01-07T03:15:52.612Z,76.02
2018-01-07T03:18:20.113Z,76.34
2018-01-07T03:20:47.656Z,76.21
2018-01-07T03:23:15.169Z,75.78
2018-01-07T03:25:42.678Z,76.01
2018-01-07T03:28:10.181Z,75.84
2018-01-07T03:30:37.723Z,76.30
2018-01-07T03:33:05.244Z,76.36
2018-01-07T03:35:32.757Z,76.14
2018-01-07T03:38:00.320Z,76.02
2018-01-07T03:40:27.894Z,75.89
2018-01-07T03:42:55.470Z,75.98
2018-01-07T03:45:22.972Z,75.95
2018-01-07T03:47:50.568Z,76.24
2018-01-07T03:50:18.068Z,75.94
2018-01-07T03:52:45.568Z,76.39
2018-01-07T03:55:13.090Z,76.15
2018-01-07T03:57:40.618Z,76.40
2018-01-07T04:00:08.129Z,76.12
2018-01-07T04:02:35.661Z,76.22
2018-01-07T04:05:03.160Z,76.40
2018-01-07T04:07:30.705Z,76.48
2018-01-07T04:09:58.223Z,76.27
2018-01-07T04:12:25.726Z,76.08
2018-01-07T04:14:53.240Z,76.49
2018-01-07T04:17:20.772Z,76.61
2018-01-07T04:19:48.268Z,76.58
2018-01-07T04:22:15.907Z,76.63
2018-01-07T04:24:43.424Z,76.66
2018-01-07T04:27:10.936Z,76.75
2018-01-07T04:29:38.456Z,76.47
2018-01-07T04:32:06.010Z,76.54
2018-01-07T04:34:33.603Z,76.47
2018-01-07T04:37:01.100Z,76.63
2018-01-07T04:39:28.608Z,76.70
2018-01-07T04:41:56.190Z,76.77
2018-01-07T04:44:23.717Z,76.82
2018-01-07T04:46:51.230Z,76.82
2018-01-07T04:49:18.733Z,76.87
2018-01-07T04:51:46.287Z,76.78
2018-01-07T04:54:13.849Z,77.01
2018-01-07T04:56:41.377Z,76.86
2018-01-07T04:59:08.909Z,77.11
2018-01-07T05:01:36.429Z,77.12
2018-01-07T05:04:03.988Z,77.19
2018-01-07T05:06:31.510Z,77.40
2018-01-07T05:08:59.029Z,77.39
2018-01-07T05:11:26.600Z,77.61
2018-01-07T05:13:54.132Z,77.52
2018-01-07T05:16:21.645Z,77.67
2018-01-07T05:18:49.145Z,77.96
2018-01-07T05:21:16.661Z,77.80
2018-01-07T05:23:44.185Z,77.99
2018-01-07T05:26:11.689Z,77.92
2018-01-07T05:28:39.314Z,78.21
2018-01-07T05:31:06.831Z,78.31
2018-01-07T05:33:34.359Z,78.23
2018-01-07T05:36:01.973Z,78.33
2018-01-07T05:38:29.533Z,78.21
2018-01-07T05:40:57.032Z,78.26
2018-01-07T05:43:24.540Z,78.24
2018-01-07T05:45:52.105Z,78.47
2018-01-07T05:48:19.612Z,78.50
2018-01-07T05:50:47.168Z,78.37
2018-01-07T05:53:14.665Z,78.39
2018-01-07T05:55:42.167Z,78.33
2018-01-07T05:58:09.686Z,78.58
2018-01-07T06:00:37.274Z,78.56
2018-01-07T06:03:04.782Z,78.29
2018-01-07T06:05:32.394Z,78.28
2018-01-07T06:07:59.969Z,78.20
2018-01-07T06:10:27.486Z,78.38
2018-01-07T06:12:55.082Z,78.22
2018-01-07T06:15:22.595Z,78.25
2018-01-07T06:17:50.105Z,78.16
2018-01-07T06:20:17.612Z,78.48
2018-01-07T06:22:45.144Z,78.37
2018-01-07T06:25:12.666Z,78.76
2018-01-07T06:27:40.178Z,78.67
2018-01-07T06:30:07.697Z,78.78
2018-01-07T06:32:35.254Z,78.85
2018-01-07T06:35:02.812Z,79.11
2018-01-07T06:37:30.337Z,78.90
2018-01-07T06:39:57.863Z,79.09
2018-01-07T06:42:25.517Z,79.09
2018-01-07T06:44:53.047Z,79.04
2018-01-07T06:47:20.578Z,79.06
2018-01-07T06:49:48.102Z,79.04
2018-01-07T06:52:15.627Z,78.96
2018-01-07T06:54:43.200Z,79.03
2018-01-07T06:57:10.716Z,79.03
2018-01-07T06:59:38.330Z,78.86
2018-01-07T07:02:05.858Z,78.43
2018-01-07T07:04:33.436Z,78.32
2018-01-07T07:07:00.944Z,78.19
2018-01-07T07:09:28.441Z,78.24
2018-01-07T07:11:56.592Z,77.53
2018-01-07T07:14:24.109Z,77.80
2018-01-07T07:16:51.616Z,77.22
2018-01-07T07:19:19.157Z,77.47
2018-01-07T07:21:46.672Z,77.22
2018-01-07T07:24:14.193Z,76.98
2018-01-07T07:26:41.701Z,77.14
2018-01-07T07:29:09.203Z,76.76
2018-01-07T07:31:36.710Z,76.87
2018-01-07T07:34:04.218Z,76.81
2018-01-07T07:36:31.725Z,77.01
2018-01-07T07:38:59.276Z,76.62
2018-01-07T07:41:26.836Z,76.56
2018-01-07T07:43:54.337Z,76.43
2018-01-07T07:46:21.835Z,76.28
2018-01-07T07:48:49.409Z,76.29
2018-01-07T07:51:16.969Z,76.43
2018-01-07T07:53:44.487Z,76.19
2018-01-07T07:56:12.088Z,76.08
2018-01-07T07:58:39.650Z,76.10
2018-01-07T08:01:07.167Z,76.25
2018-01-07T08:03:34.778Z,75.95
2018-01-07T08:06:02.315Z,76.05
2018-01-07T08:08:29.844Z,76.13
2018-01-07T08:10:57.362Z,76.15
2018-01-07T08:13:24.877Z,75.93
2018-01-07T08:15:52.470Z,75.89
2018-01-07T08:18:19.977Z,75.80
2018-01-07T08:20:47.524Z,75.78
2018-01-07T08:23:15.041Z,75.32
2018-01-07T08:25:42.559Z,75.34
2018-01-07T08:28:10.069Z,75.22
2018-01-07T08:30:37.577Z,75.18
2018-01-07T08:33:05.090Z,75.33
2018-01-07T08:35:32.620Z,75.21
2018-01-07T08:38:00.190Z,75.03
2018-01-07T08:40:27.766Z,75.01
2018-01-07T08:42:55.401Z,75.06
2018-01-07T08:45:22.912Z,75.03
2018-01-07T08:47:50.429Z,74.98
2018-01-07T08:50:17.949Z,74.83
2018-01-07T08:52:45.565Z,74.66
2018-01-07T08:55:13.118Z,74.67
2018-01-07T08:57:40.640Z,74.82
2018-01-07T09:00:08.148Z,74.40
2018-01-07T09:02:35.662Z,74.05
2018-01-07T09:05:03.189Z,74.03
2018-01-07T09:07:30.705Z,73.89
2018-01-07T09:09:58.213Z,73.59
2018-01-07T09:12:25.732Z,73.80
2018-01-07T09:14:53.322Z,73.43
2018-01-07T09:17:20.831Z,73.05
2018-01-07T09:19:48.417Z,72.92
2018-01-07T09:22:15.933Z,72.61
2018-01-07T09:24:43.459Z,72.54
2018-01-07T09:27:10.990Z,72.56
2018-01-07T09:29:38.554Z,72.45
2018-01-07T09:32:06.069Z,72.05
2018-01-07T09:34:33.613Z,72.68
2018-01-07T09:37:01.133Z,72.96
2018-01-07T09:39:28.665Z,72.98
2018-01-07T09:41:56.176Z,72.40
2018-01-07T09:44:23.689Z,72.37
2018-01-07T09:46:51.271Z,72.13
2018-01-07T09:49:18.777Z,72.25
2018-01-07T09:51:46.299Z,72.84
2018-01-07T09:54:13.804Z,71.77
2018-01-07T09:56:41.332Z,72.11
2018-01-07T09:59:08.862Z,72.43
2018-01-07T10:01:36.409Z,71.80
2018-01-07T10:04:03.974Z,71.57
2018-01-07T10:06:31.558Z,71.70
2018-01-07T10:08:59.072Z,71.52
2018-01-07T10:11:26.585Z,71.12
2018-01-07T10:13:54.104Z,71.42
2018-01-07T10:16:21.606Z,71.29
2018-01-07T10:18:49.113Z,70.60
2018-01-07T10:21:16.683Z,70.82
2018-01-07T10:23:44.273Z,70.71
2018-01-07T10:26:11.767Z,70.56
2018-01-07T10:28:39.278Z,69.69
2018-01-07T10:31:06.790Z,70.29
2018-01-07T10:33:34.336Z,70.06
2018-01-07T10:36:01.855Z,69.98
2018-01-07T10:38:29.378Z,70.27
2018-01-07T10:40:56.965Z,69.84
2018-01-07T10:43:24.499Z,69.99
2018-01-07T10:45:52.028Z,70.11
2018-01-07T10:48:19.640Z,69.80
2018-01-07T10:50:47.155Z,69.69
2018-01-07T10:53:14.677Z,69.82
2018-01-07T10:55:42.195Z,69.29
2018-01-07T10:58:09.697Z,71.20
2018-01-07T11:00:42.887Z,71.89
2018-01-07T11:03:10.425Z,69.68
2018-01-07T11:05:38.745Z,69.01
2018-01-07T11:08:06.368Z,67.58
2018-01-07T11:10:33.938Z,67.51
2018-01-07T11:13:01.440Z,67.77
2018-01-07T11:15:28.957Z,68.14
2018-01-07T11:17:56.478Z,67.44
2018-01-07T11:20:23.989Z,68.02
2018-01-07T11:22:51.494Z,67.37
2018-01-07T11:25:19.003Z,67.52
2018-01-07T11:27:46.504Z,67.57
2018-01-07T11:30:14.290Z,67.32
2018-01-07T11:32:42.754Z,67.85
2018-01-07T11:35:10.284Z,67.39
2018-01-07T11:37:37.802Z,67.45
2018-01-07T11:40:05.305Z,67.12
2018-01-07T11:42:32.804Z,67.30
2018-01-07T11:45:00.322Z,67.27
2018-01-07T11:47:27.941Z,67.40
2018-01-07T11:49:55.522Z,68.22
2018-01-07T11:52:23.023Z,68.60
2018-01-07T11:54:50.535Z,68.24
2018-01-07T11:57:18.045Z,68.37
2018-01-07T11:59:45.585Z,68.02
2018-01-07T12:02:13.205Z,67.68
2018-01-07T12:04:40.709Z,67.99
2018-01-07T12:07:08.224Z,68.27
2018-01-07T12:09:35.779Z,68.37
2018-01-07T12:12:03.341Z,68.37
2018-01-07T12:14:30.848Z,68.42
2018-01-07T12:16:58.492Z,68.53
2018-01-07T12:19:26.007Z,68.99
2018-01-07T12:21:53.546Z,68.99
2018-01-07T12:24:21.155Z,69.04
2018-01-07T12:26:49.450Z,68.87
2018-01-07T12:29:16.961Z,69.27
2018-01-07T12:31:44.533Z,69.14
2018-01-07T12:34:12.037Z,69.24
2018-01-07T12:36:39.658Z,69.54
2018-01-07T12:39:07.847Z,69.31
2018-01-07T12:41:35.385Z,70.95
2018-01-07T12:44:02.892Z,68.90
2018-01-07T12:46:30.393Z,70.23
2018-01-07T12:48:57.964Z,69.58
2018-01-07T12:51:25.474Z,69.68
2018-01-07T12:53:52.985Z,69.83
2018-01-07T12:56:20.484Z,69.92
2018-01-07T12:58:47.991Z,70.00
2018-01-07T13:01:15.503Z,69.82
2018-01-07T13:03:43.018Z,70.44
2018-01-07T13:06:10.591Z,70.37
2018-01-07T13:08:38.478Z,70.38
2018-01-07T13:11:06.022Z,70.64
2018-01-07T13:13:33.582Z,70.63
2018-01-07T13:16:01.112Z,70.44
2018-01-07T13:18:28.620Z,70.55
2018-01-07T13:20:56.154Z,70.64
2018-01-07T13:23:23.817Z,70.34
2018-01-07T13:25:51.382Z,70.70
2018-01-07T13:28:18.909Z,70.41
2018-01-07T13:30:46.424Z,70.37
2018-01-07T13:33:13.933Z,70.49
2018-01-07T13:35:41.530Z,70.46
2018-01-07T13:38:09.059Z,70.31
2018-01-07T13:40:36.643Z,70.57
2018-01-07T13:43:04.166Z,70.48
2018-01-07T13:45:31.678Z,70.74
2018-01-07T13:47:59.273Z,70.72
2018-01-07T13:50:26.867Z,70.69
2018-01-07T13:52:54.374Z,70.55
2018-01-07T13:55:21.896Z,70.61
2018-01-07T13:57:49.408Z,70.54
2018-01-07T14:00:16.945Z,70.36
2018-01-07T14:02:44.556Z,70.55
2018-01-07T14:05:12.136Z,70.45
2018-01-07T14:07:39.676Z,70.78
2018-01-07T14:10:07.251Z,71.02
2018-01-07T14:12:34.757Z,71.24
2018-01-07T14:15:02.262Z,71.15
2018-01-07T14:17:29.777Z,71.50
2018-01-07T14:19:57.293Z,71.41
2018-01-07T14:22:24.811Z,71.68
2018-01-07T14:24:52.309Z,71.77
2018-01-07T14:27:19.833Z,71.78
2018-01-07T14:29:47.339Z,71.96
2018-01-07T14:32:14.853Z,72.13
2018-01-07T14:34:42.414Z,72.21
2018-01-07T14:37:09.945Z,72.34
2018-01-07T14:39:37.456Z,72.46
2018-01-07T14:42:04.982Z,72.72
2018-01-07T14:44:32.522Z,72.46
2018-01-07T14:47:00.044Z,72.43
2018-01-07T14:49:27.569Z,72.74
2018-01-07T14:51:55.072Z,72.75
2018-01-07T14:54:22.585Z,72.88
2018-01-07T14:56:50.100Z,73.09
2018-01-07T14:59:17.601Z,72.96
2018-01-07T15:01:45.105Z,72.91
2018-01-07T15:04:12.625Z,73.34
2018-01-07T15:06:40.211Z,73.16
2018-01-07T15:09:07.729Z,73.24
2018-01-07T15:11:35.237Z,73.29
2018-01-07T15:14:02.780Z,73.58
2018-01-07T15:16:30.306Z,73.76
2018-01-07T15:18:57.821Z,73.80
2018-01-07T15:21:25.372Z,73.77
2018-01-07T15:23:52.914Z,73.92
2018-01-07T15:26:20.494Z,73.94
2018-01-07T15:28:48.051Z,73.92
2018-01-07T15:31:15.569Z,74.48
2018-01-07T15:33:43.108Z,74.19
2018-01-07T15:36:10.622Z,74.29
2018-01-07T15:38:38.140Z,74.33
2018-01-07T15:41:05.652Z,74.36
2018-01-07T15:43:33.169Z,74.62
2018-01-07T15:46:00.673Z,74.75
2018-01-07T15:48:28.180Z,75.24
2018-01-07T15:50:55.719Z,74.82
2018-01-07T15:53:23.310Z,75.09
2018-01-07T15:55:50.897Z,75.17
2018-01-07T15:58:18.413Z,75.24
2018-01-07T16:00:45.954Z,75.18
2018-01-07T16:03:13.470Z,75.11
2018-01-07T16:05:40.993Z,75.27
2018-01-07T16:08:08.530Z,75.31
2018-01-07T16:10:36.034Z,75.48
2018-01-07T16:13:03.547Z,75.70
2018-01-07T16:15:31.045Z,75.88
2018-01-07T16:17:58.564Z,75.78
2018-01-07T16:20:26.080Z,75.72
2018-01-07T16:22:53.609Z,75.79
2018-01-07T16:25:21.129Z,75.85
2018-01-07T16:27:48.630Z,76.11
2018-01-07T16:30:16.136Z,76.16
2018-01-07T16:32:43.646Z,76.26
2018-01-07T16:35:11.180Z,76.39
2018-01-07T16:37:38.692Z,76.55
2018-01-07T16:40:06.210Z,76.90
2018-01-07T16:42:33.726Z,76.78
2018-01-07T16:45:01.289Z,76.47
2018-01-07T16:47:28.798Z,76.40
2018-01-07T16:49:56.313Z,76.90
2018-01-07T16:52:23.845Z,76.52
2018-01-07T16:54:51.362Z,77.01
2018-01-07T16:57:18.993Z,76.73
2018-01-07T16:59:46.541Z,76.85
2018-01-07T17:02:14.050Z,77.08
2018-01-07T17:04:41.558Z,76.80
2018-01-07T17:07:09.069Z,76.87
2018-01-07T17:09:36.603Z,76.90
2018-01-07T17:12:04.108Z,76.91
2018-01-07T17:14:31.619Z,76.99
2018-01-07T17:16:59.240Z,76.99
2018-01-07T17:19:26.756Z,76.94
2018-01-07T17:21:54.261Z,77.16
2018-01-07T17:24:21.768Z,77.16
2018-01-07T17:26:49.289Z,77.24
2018-01-07T17:29:16.854Z,77.10
2018-01-07T17:31:44.412Z,77.04
2018-01-07T17:34:11.921Z,77.05
2018-01-07T17:36:39.471Z,77.22
2018-01-07T17:39:06.973Z,77.18
2018-01-07T17:41:34.499Z,77.29
2018-01-07T17:44:02.034Z,77.47
2018-01-07T17:46:29.553Z,77.54
2018-01-07T17:48:57.061Z,77.43
2018-01-07T17:51:24.667Z,77.53
2018-01-07T17:53:52.183Z,77.53
2018-01-07T17:56:19.700Z,77.74
2018-01-07T17:58:47.201Z,77.93
2018-01-07T18:01:14.788Z,77.80
2018-01-07T18:03:42.305Z,77.94
2018-01-07T18:06:09.816Z,77.65
2018-01-07T18:08:37.355Z,77.83
2018-01-07T18:11:04.880Z,77.84
2018-01-07T18:13:32.377Z,77.68
2018-01-07T18:15:59.928Z,77.69
2018-01-07T18:18:27.476Z,77.90
2018-01-07T18:20:55.089Z,77.72
2018-01-07T18:23:22.648Z,78.05
2018-01-07T18:25:50.176Z,78.17
2018-01-07T18:28:17.769Z,77.99
2018-01-07T18:30:45.279Z,77.97
2018-01-07T18:33:12.785Z,78.22
2018-01-07T18:35:40.315Z,78.02
2018-01-07T18:38:07.912Z,77.95
2018-01-07T18:40:35.433Z,78.08
2018-01-07T18:43:02.963Z,78.06
2018-01-07T18:45:30.585Z,78.21
2018-01-07T18:47:58.085Z,78.50
2018-01-07T18:50:25.605Z,78.30
2018-01-07T18:52:53.146Z,78.39
2018-01-07T18:55:20.731Z,78.31
2018-01-07T18:57:48.246Z,78.42
2018-01-07T19:00:15.768Z,78.21
2018-01-07T19:02:43.270Z,78.29
2018-01-07T19:05:10.789Z,78.19
2018-01-07T19:07:38.313Z,78.25
2018-01-07T19:10:05.872Z,78.06
2018-01-07T19:12:33.380Z,78.13
2018-01-07T19:15:00.878Z,78.25
2018-01-07T19:17:28.446Z,78.30
2018-01-07T19:19:56.014Z,78.66
2018-01-07T19:22:23.543Z,78.61
2018-01-07T19:24:51.136Z,78.43
2018-01-07T19:27:18.646Z,78.65
2018-01-07T19:29:46.257Z,78.75
2018-01-07T19:32:13.881Z,78.99
2018-01-07T19:34:41.411Z,78.86
2018-01-07T19:37:09.078Z,78.92
2018-01-07T19:39:36.582Z,79.06
2018-01-07T19:42:04.101Z,79.27
2018-01-07T19:44:31.609Z,79.43
2018-01-07T19:46:59.182Z,79.27
2018-01-07T19:49:26.743Z,79.38
2018-01-07T19:51:54.309Z,79.53
2018-01-07T19:54:21.854Z,79.25
2018-01-07T19:56:49.358Z,79.28
2018-01-07T19:59:16.864Z,79.36
2018-01-07T20:01:44.416Z,79.38
2018-01-07T20:04:11.937Z,79.44
2018-01-07T20:06:39.575Z,79.48
2018-01-07T20:09:07.104Z,79.40
2018-01-07T20:11:34.681Z,79.62
2018-01-07T20:14:02.193Z,79.65
2018-01-07T20:16:29.814Z,79.64
2018-01-07T20:18:57.360Z,79.50
2018-01-07T20:21:24.913Z,79.60
2018-01-07T20:23:52.434Z,79.90
2018-01-07T20:26:19.980Z,79.93
2018-01-07T20:28:47.487Z,79.85
2018-01-07T20:31:14.989Z,79.74
2018-01-07T20:33:42.631Z,80.10
2018-01-07T20:36:10.149Z,79.75
2018-01-07T20:38:37.674Z,80.03
2018-01-07T20:41:05.186Z,79.97
2018-01-07T20:43:32.694Z,80.16
2018-01-07T20:46:00.207Z,80.23
2018-01-07T20:48:27.713Z,80.32
2018-01-07T20:50:55.244Z,80.12
2018-01-07T20:53:22.760Z,80.30
2018-01-07T20:55:50.297Z,80.37
2018-01-07T20:58:17.822Z,80.39
2018-01-07T21:00:45.359Z,80.66
2018-01-07T21:03:12.921Z,80.65
2018-01-07T21:05:40.430Z,80.59
2018-01-07T21:08:08.641Z,80.63
2018-01-07T21:10:36.148Z,80.69
2018-01-07T21:13:03.658Z,80.82
2018-01-07T21:15:31.172Z,80.93
2018-01-07T21:17:58.808Z,80.95
2018-01-07T21:20:26.336Z,80.83
2018-01-07T21:22:53.929Z,80.86
2018-01-07T21:25:21.487Z,81.04
2018-01-07T21:27:49.017Z,81.18
2018-01-07T21:30:16.561Z,80.90
2018-01-07T21:32:44.092Z,81.32
2018-01-07T21:35:11.728Z,82.26
2018-01-07T21:37:39.258Z,82.77
2018-01-07T21:40:06.846Z,83.33
2018-01-07T21:42:34.406Z,81.88
2018-01-07T21:45:01.918Z,82.03
2018-01-07T21:47:29.527Z,81.01
2018-01-07T21:49:57.044Z,81.10
2018-01-07T21:52:24.601Z,81.19
2018-01-07T21:54:52.205Z,81.07
2018-01-07T21:57:19.709Z,81.27
2018-01-07T21:59:59.070Z,81.37
2018-01-07T22:02:27.583Z,81.22
2018-01-07T22:04:58.967Z,81.50
2018-01-07T22:07:26.489Z,81.33
2018-01-07T22:09:54.028Z,81.41
2018-01-07T22:12:21.614Z,81.36
2018-01-07T22:14:49.160Z,81.56
2018-01-07T22:17:16.677Z,81.66
2018-01-07T22:19:44.221Z,81.80
2018-01-07T22:22:11.848Z,81.62
2018-01-07T22:24:39.409Z,81.81
2018-01-07T22:27:06.939Z,82.01
2018-01-07T22:29:34.457Z,81.73
2018-01-07T22:32:01.972Z,81.87
2018-01-07T22:34:29.481Z,82.02
2018-01-07T22:36:57.008Z,82.03
2018-01-07T22:39:24.523Z,81.94
2018-01-07T22:41:52.041Z,82.06
2018-01-07T22:44:19.687Z,82.06
2018-01-07T22:46:47.212Z,81.88
2018-01-07T22:49:14.756Z,82.27
2018-01-07T22:51:42.276Z,82.35
2018-01-07T22:54:09.793Z,82.15
2018-01-07T22:56:37.318Z,82.21
2018-01-07T22:59:04.912Z,82.30
2018-01-07T23:01:32.432Z,82.14
2018-01-07T23:03:59.978Z,82.56
2018-01-07T23:06:27.490Z,82.45
2018-01-07T23:08:55.079Z,82.48
2018-01-07T23:11:22.638Z,82.34
2018-01-07T23:13:50.203Z,82.55
2018-01-07T23:16:17.763Z,82.51
2018-01-07T23:18:45.319Z,82.61
2018-01-07T23:21:12.841Z,82.65
2018-01-07T23:23:40.358Z,82.46
2018-01-07T23:26:07.885Z,82.58
2018-01-07T23:28:35.413Z,82.53
2018-01-07T23:31:02.950Z,82.44
2018-01-07T23:33:30.467Z,82.55
2018-01-07T23:35:57.985Z,82.60
2018-01-07T23:38:25.509Z,82.58
2018-01-07T23:40:53.029Z,82.98
2018-01-07T23:43:20.573Z,83.06
2018-01-07T23:45:48.095Z,83.24
2018-01-07T23:48:15.608Z,83.16
2018-01-07T23:50:43.189Z,83.29
2018-01-07T23:53:10.721Z,83.04
2018-01-07T23:55:38.277Z,83.32
2018-01-07T23:58:05.793Z,83.29
